Time;durP1;ratioP1;P1;durP2;ratioP2;P2;SDS_P1;SDS_P2;PMS_P1;PMS_P2;Temp;Humidity;BMP_temperature;BMP_pressure;BME280_temperature;BME280_humidity;BME280_pressure;Samples;Min_cycle;Max_cycle;Signal;HPM_P1;HPM_P2
2023/10/15 00:00:15;;;;;;;;;;;;;;;;;;4909075;28;21869;-61
2023/10/15 00:02:43;;;;;;;;;;;;;;;;;;4962174;28;19968;-63
2023/10/15 00:05:12;;;;;;;;;;;;;;;;;;4949044;28;19923;-61
2023/10/15 00:07:37;;;;;;;;;;;;;;;;;;4943644;28;19922;-62
2023/10/15 00:10:05;;;;;;;;;;;;;;;;;;4927504;28;19956;-62
2023/10/15 00:12:37;;;;;;;;;;;;;;;;;;4962423;28;20006;-62
2023/10/15 00:15:03;;;;;;;;;;;;;;;;;;4947404;28;19922;-62
2023/10/15 00:17:31;;;;;;;;;;;;;;;;;;4941972;28;19922;-62
2023/10/15 00:19:57;;;;;;;;;;;;;;;;;;4943953;28;20012;-62
2023/10/15 00:22:24;;;;;;;;;;;;;;;;;;4962418;28;19987;-62
2023/10/15 00:24:50;;;;;;;;;;;;;;;;;;4946380;28;19925;-62
2023/10/15 00:27:20;;;;;;;;;;;;;;;;;;4937846;28;19928;-61
2023/10/15 00:29:45;;;;;;;;;;;;;;;;;;4945255;28;19922;-60
2023/10/15 00:32:12;;;;;;;;;;;;;;;;;;4947392;28;19928;-61
2023/10/15 00:34:40;;;;;;;;;;;;;;;;;;4947627;28;19918;-62
2023/10/15 00:37:08;;;;;;;;;;;;;;;;;;4948767;28;19926;-62
2023/10/15 00:39:37;;;;;;;;;;;;;;;;;;4962281;28;19922;-62
2023/10/15 00:42:05;;;;;;;;;;;;;;;;;;5007445;28;21508;-62
2023/10/15 00:44:30;;;;;;;;;;;;;;;;;;4961107;28;19974;-61
2023/10/15 00:46:55;;;;;;;;;;;;;;;;;;5009784;28;19922;-63
2023/10/15 00:49:21;;;;;;;;;;;;;;;;;;4947880;28;19922;-62
2023/10/15 00:51:46;;;;;;;;;;;;;;;;;;4947239;28;20402;-62
2023/10/15 00:54:14;;;;;;;;;;;;;;;;;;4958551;28;19918;-63
2023/10/15 00:56:44;;;;;;;;;;;;;;;;;;4947304;28;20466;-63
2023/10/15 01:02:02;;;;;;;;;;;;;;;;;;4947974;28;19922;-64
2023/10/15 01:04:31;;;;;;;;;;;;;;;;;;4931252;28;21990;-63
2023/10/15 01:07:00;;;;;;;;;;;;;;;;;;4925770;28;20188;-63
2023/10/15 01:09:29;;;;;;;;;;;;;;;;;;4933634;28;20074;-63
2023/10/15 01:11:57;;;;;;;;;;;;;;;;;;4942578;28;19933;-62
2023/10/15 01:14:28;;;;;;;;;;;;;;;;;;4948406;28;19918;-63
2023/10/15 01:16:53;;;;;;;;;;;;;;;;;;4957624;28;19993;-62
2023/10/15 01:19:20;;;;;;;;;;;;;;;;;;4946713;28;20415;-63
2023/10/15 01:24:18;;;;;;;;;;;;;;;;;;4963163;28;19944;-63
2023/10/15 01:26:49;;;;;;;;;;;;;;;;;;4962768;28;20293;-62
2023/10/15 01:29:19;;;;;;;;;;;;;;;;;;4933204;28;20377;-63
2023/10/15 01:32:03;;;;;;;;;;;;;;;;;;4945532;28;20080;-63
2023/10/15 01:34:29;;;;;;;;;;;;;;;;;;4926734;28;21723;-63
2023/10/15 01:36:57;;;;;;;;;;;;;;;;;;4947766;28;19930;-63
2023/10/15 01:40:26;;;;;;;;;;;;;;;;;;4947893;28;19922;-61
2023/10/15 01:42:31;;;;;;;;;;;;;;;;;;4951646;28;20324;-63
2023/10/15 01:45:08;;;;;;;;;;;;;;;;;;4950531;28;19926;-63
2023/10/15 01:47:36;;;;;;;;;;;;;;;;;;4964301;28;19922;-62
2023/10/15 01:50:08;;;;;;;;;;;;;;;;;;4947877;28;19918;-62
2023/10/15 01:52:39;;;;;;;;;;;;;;;;;;4942870;28;19918;-62
2023/10/15 01:55:05;;;;;;;;;;;;;;;;;;4921314;28;20445;-63
2023/10/15 01:57:33;;;;;;;;;;;;;;;;;;4966569;28;19929;-62
2023/10/15 02:00:44;;;;;;;;;;;;;;;;;;4946422;28;19922;-62
2023/10/15 02:02:48;;;;;;;;;;;;;;;;;;4961998;28;20013;-63
2023/10/15 02:05:30;;;;;;;;;;;;;;;;;;4948948;28;20384;-62
2023/10/15 02:07:58;;;;;;;;;;;;;;;;;;4933632;28;19918;-62
2023/10/15 02:10:23;;;;;;;;;;;;;;;;;;5011553;28;20320;-62
2023/10/15 02:12:59;;;;;;;;;;;;;;;;;;4950131;28;20312;-62
2023/10/15 02:15:25;;;;;;;;;;;;;;;;;;4951076;28;20548;-62
2023/10/15 02:17:53;;;;;;;;;;;;;;;;;;4927759;28;20450;-62
2023/10/15 02:20:42;;;;;;;;;;;;;;;;;;4938282;28;19926;-62
2023/10/15 02:23:06;;;;;;;;;;;;;;;;;;4950250;28;19918;-62
2023/10/15 02:25:36;;;;;;;;;;;;;;;;;;4945210;28;19918;-62
2023/10/15 02:28:01;;;;;;;;;;;;;;;;;;4949917;28;19922;-62
2023/10/15 02:30:26;;;;;;;;;;;;;;;;;;5009756;28;19922;-62
2023/10/15 02:32:53;;;;;;;;;;;;;;;;;;4963272;28;19922;-62
2023/10/15 02:35:24;;;;;;;;;;;;;;;;;;4959723;28;19926;-62
2023/10/15 02:37:49;;;;;;;;;;;;;;;;;;4950201;28;19926;-62
2023/10/15 02:40:18;;;;;;;;;;;;;;;;;;4946110;28;20217;-62
2023/10/15 02:42:53;;;;;;;;;;;;;;;;;;4947871;28;20003;-63
2023/10/15 02:45:19;;;;;;;;;;;;;;;;;;4964451;28;19922;-65
2023/10/15 02:47:48;;;;;;;;;;;;;;;;;;4949707;28;20574;-63
2023/10/15 02:50:18;;;;;;;;;;;;;;;;;;4950771;28;19922;-64
2023/10/15 02:52:43;;;;;;;;;;;;;;;;;;4962494;28;19976;-65
2023/10/15 02:55:14;;;;;;;;;;;;;;;;;;4944414;28;19922;-66
2023/10/15 02:57:39;;;;;;;;;;;;;;;;;;4952184;28;20867;-66
2023/10/15 03:00:12;;;;;;;;;;;;;;;;;;4961047;28;19963;-66
2023/10/15 03:02:43;;;;;;;;;;;;;;;;;;4963495;28;19922;-67
2023/10/15 03:05:13;;;;;;;;;;;;;;;;;;4961947;28;19925;-66
2023/10/15 03:07:42;;;;;;;;;;;;;;;;;;4945829;28;21521;-65
2023/10/15 03:10:10;;;;;;;;;;;;;;;;;;4961937;28;19922;-66
2023/10/15 03:12:35;;;;;;;;;;;;;;;;;;4949646;28;19929;-66
2023/10/15 03:15:00;;;;;;;;;;;;;;;;;;4962829;28;20247;-67
2023/10/15 03:17:31;;;;;;;;;;;;;;;;;;4949541;28;19927;-68
2023/10/15 03:20:11;;;;;;;;;;;;;;;;;;4962899;28;20377;-67
2023/10/15 03:22:38;;;;;;;;;;;;;;;;;;5011215;28;19933;-68
2023/10/15 03:25:03;;;;;;;;;;;;;;;;;;4941094;28;19918;-65
2023/10/15 03:27:32;;;;;;;;;;;;;;;;;;4934231;28;19925;-67
2023/10/15 03:30:01;;;;;;;;;;;;;;;;;;4948313;28;19919;-67
2023/10/15 03:32:43;;;;;;;;;;;;;;;;;;5011087;28;19995;-66
2023/10/15 03:35:16;;;;;;;;;;;;;;;;;;4941388;28;19918;-66
2023/10/15 03:37:45;;;;;;;;;;;;;;;;;;4944553;28;19948;-65
2023/10/15 03:40:13;;;;;;;;;;;;;;;;;;4945716;28;20044;-63
2023/10/15 03:42:40;;;;;;;;;;;;;;;;;;5009696;28;19957;-65
2023/10/15 03:45:09;;;;;;;;;;;;;;;;;;4947252;28;19922;-64
2023/10/15 03:47:39;;;;;;;;;;;;;;;;;;4964254;28;19972;-64
2023/10/15 03:50:08;;;;;;;;;;;;;;;;;;4948764;28;19918;-63
2023/10/15 03:52:34;;;;;;;;;;;;;;;;;;4949903;28;19918;-64
2023/10/15 03:54:59;;;;;;;;;;;;;;;;;;4939403;28;19918;-64
2023/10/15 03:57:34;;;;;;;;;;;;;;;;;;4952077;28;20141;-64
2023/10/15 04:00:00;;;;;;;;;;;;;;;;;;4926241;28;20348;-65
2023/10/15 04:02:39;;;;;;;;;;;;;;;;;;4945553;28;19918;-65
2023/10/15 04:05:08;;;;;;;;;;;;;;;;;;4949093;28;20199;-65
2023/10/15 04:07:53;;;;;;;;;;;;;;;;;;5009252;28;19918;-67
2023/10/15 04:10:23;;;;;;;;;;;;;;;;;;4946775;28;20431;-67
2023/10/15 04:12:48;;;;;;;;;;;;;;;;;;4962483;28;20011;-66
2023/10/15 04:15:17;;;;;;;;;;;;;;;;;;4943292;28;21627;-65
2023/10/15 04:17:44;;;;;;;;;;;;;;;;;;4928581;28;19926;-65
2023/10/15 04:20:09;;;;;;;;;;;;;;;;;;4946219;28;19922;-65
2023/10/15 04:22:44;;;;;;;;;;;;;;;;;;4949378;28;20585;-64
2023/10/15 04:25:23;;;;;;;;;;;;;;;;;;4944357;28;20393;-64
2023/10/15 04:27:49;;;;;;;;;;;;;;;;;;4964076;28;19926;-64
2023/10/15 04:30:14;;;;;;;;;;;;;;;;;;4999943;28;20026;-66
2023/10/15 04:35:08;;;;;;;;;;;;;;;;;;4962691;28;19926;-64
2023/10/15 04:37:36;;;;;;;;;;;;;;;;;;4958298;28;19999;-63
2023/10/15 04:40:04;;;;;;;;;;;;;;;;;;4948957;28;20363;-64
2023/10/15 04:42:30;;;;;;;;;;;;;;;;;;4934961;28;19945;-64
2023/10/15 04:44:55;;;;;;;;;;;;;;;;;;4946652;28;20368;-64
2023/10/15 04:47:38;;;;;;;;;;;;;;;;;;4946010;28;19926;-64
2023/10/15 04:50:14;;;;;;;;;;;;;;;;;;4944329;28;19926;-64
2023/10/15 04:52:40;;;;;;;;;;;;;;;;;;4929099;28;19922;-62
2023/10/15 04:55:07;;;;;;;;;;;;;;;;;;4946330;28;19945;-63
2023/10/15 04:57:35;;;;;;;;;;;;;;;;;;4955488;28;20321;-63
2023/10/15 05:00:00;;;;;;;;;;;;;;;;;;4960254;28;20276;-63
2023/10/15 05:02:26;;;;;;;;;;;;;;;;;;4962981;28;19946;-64
2023/10/15 05:04:54;;;;;;;;;;;;;;;;;;5006709;28;20437;-65
2023/10/15 05:07:19;;;;;;;;;;;;;;;;;;4961468;28;19915;-64
2023/10/15 05:09:44;;;;;;;;;;;;;;;;;;4943085;28;19922;-64
2023/10/15 05:12:15;;;;;;;;;;;;;;;;;;4938624;28;20795;-65
2023/10/15 05:14:40;;;;;;;;;;;;;;;;;;4931003;28;20296;-65
2023/10/15 05:17:06;;;;;;;;;;;;;;;;;;4950236;28;20037;-63
2023/10/15 05:19:31;;;;;;;;;;;;;;;;;;4928097;28;19937;-64
2023/10/15 05:22:02;;;;;;;;;;;;;;;;;;4966239;28;20041;-64
2023/10/15 05:24:30;;;;;;;;;;;;;;;;;;4952110;28;20003;-64
2023/10/15 05:26:56;;;;;;;;;;;;;;;;;;4939497;28;19926;-65
2023/10/15 05:29:23;;;;;;;;;;;;;;;;;;4964855;28;20046;-64
2023/10/15 05:31:53;;;;;;;;;;;;;;;;;;4926372;28;19980;-64
2023/10/15 05:34:19;;;;;;;;;;;;;;;;;;4950176;28;19962;-64
2023/10/15 05:36:48;;;;;;;;;;;;;;;;;;4950176;28;19972;-64
2023/10/15 05:39:15;;;;;;;;;;;;;;;;;;4951593;28;19926;-64
2023/10/15 05:41:43;;;;;;;;;;;;;;;;;;4950889;28;19926;-65
2023/10/15 05:44:11;;;;;;;;;;;;;;;;;;4941728;28;19921;-65
2023/10/15 05:46:36;;;;;;;;;;;;;;;;;;4960118;28;19933;-67
2023/10/15 05:49:06;;;;;;;;;;;;;;;;;;4945530;28;21081;-64
2023/10/15 05:51:32;;;;;;;;;;;;;;;;;;5013961;28;20006;-64
2023/10/15 05:54:00;;;;;;;;;;;;;;;;;;5010539;28;20017;-65
2023/10/15 05:56:27;;;;;;;;;;;;;;;;;;4926354;28;20063;-65
2023/10/15 05:58:52;;;;;;;;;;;;;;;;;;4943912;28;20998;-65
2023/10/15 06:01:20;;;;;;;;;;;;;;;;;;4948334;28;19922;-66
2023/10/15 06:03:48;;;;;;;;;;;;;;;;;;4929920;28;20242;-65
2023/10/15 06:06:13;;;;;;;;;;;;;;;;;;4929008;28;19922;-65
2023/10/15 06:08:38;;;;;;;;;;;;;;;;;;4942300;28;19919;-65
2023/10/15 06:11:06;;;;;;;;;;;;;;;;;;4963845;28;19918;-65
2023/10/15 06:13:31;;;;;;;;;;;;;;;;;;4915434;28;20261;-65
2023/10/15 06:16:00;;;;;;;;;;;;;;;;;;4944096;28;19918;-65
2023/10/15 06:18:26;;;;;;;;;;;;;;;;;;4949594;28;19926;-65
2023/10/15 06:20:54;;;;;;;;;;;;;;;;;;4934813;28;19937;-66
2023/10/15 06:23:19;;;;;;;;;;;;;;;;;;4961779;28;20009;-66
2023/10/15 06:25:47;;;;;;;;;;;;;;;;;;4948748;28;19945;-66
2023/10/15 06:28:14;;;;;;;;;;;;;;;;;;4950018;28;19918;-66
2023/10/15 06:30:39;;;;;;;;;;;;;;;;;;4935004;28;19945;-65
2023/10/15 06:33:07;;;;;;;;;;;;;;;;;;4949720;28;21844;-65
2023/10/15 06:35:33;;;;;;;;;;;;;;;;;;4927002;28;19918;-65
2023/10/15 06:37:58;;;;;;;;;;;;;;;;;;4948110;28;19932;-65
2023/10/15 06:40:24;;;;;;;;;;;;;;;;;;4943425;28;19976;-65
2023/10/15 06:42:51;;;;;;;;;;;;;;;;;;4947421;28;19960;-66
2023/10/15 06:45:19;;;;;;;;;;;;;;;;;;4958059;28;19918;-66
2023/10/15 06:47:44;;;;;;;;;;;;;;;;;;4962775;28;19929;-65
2023/10/15 06:50:09;;;;;;;;;;;;;;;;;;4942912;28;19954;-65
2023/10/15 06:52:35;;;;;;;;;;;;;;;;;;4952058;28;19922;-65
2023/10/15 06:55:04;;;;;;;;;;;;;;;;;;4962450;28;19924;-65
2023/10/15 06:57:29;;;;;;;;;;;;;;;;;;5006866;28;19926;-65
2023/10/15 06:59:54;;;;;;;;;;;;;;;;;;4944902;28;19945;-65
2023/10/15 07:02:20;;;;;;;;;;;;;;;;;;4947923;28;19922;-65
2023/10/15 07:04:48;;;;;;;;;;;;;;;;;;4933444;28;21909;-62
2023/10/15 07:07:15;;;;;;;;;;;;;;;;;;4931885;28;19934;-67
2023/10/15 07:09:43;;;;;;;;;;;;;;;;;;4929707;28;19918;-65
2023/10/15 07:12:11;;;;;;;;;;;;;;;;;;4911865;28;19929;-65
2023/10/15 07:14:39;;;;;;;;;;;;;;;;;;5009631;28;19918;-64
2023/10/15 07:17:04;;;;;;;;;;;;;;;;;;4930635;28;19922;-64
2023/10/15 07:19:30;;;;;;;;;;;;;;;;;;4923384;28;20005;-65
2023/10/15 07:21:57;;;;;;;;;;;;;;;;;;4950252;28;20523;-65
2023/10/15 07:24:23;;;;;;;;;;;;;;;;;;5010312;28;19937;-66
2023/10/15 07:26:48;;;;;;;;;;;;;;;;;;4960331;28;20419;-66
2023/10/15 07:29:13;;;;;;;;;;;;;;;;;;4946336;28;19925;-65
2023/10/15 07:31:39;;;;;;;;;;;;;;;;;;4933195;28;20335;-65
2023/10/15 07:34:04;;;;;;;;;;;;;;;;;;4962013;28;19922;-64
2023/10/15 07:36:32;;;;;;;;;;;;;;;;;;4940086;28;19914;-65
2023/10/15 07:38:57;;;;;;;;;;;;;;;;;;4948823;28;19981;-65
2023/10/15 07:41:23;;;;;;;;;;;;;;;;;;4936878;28;19957;-65
2023/10/15 07:43:48;;;;;;;;;;;;;;;;;;4948009;28;20096;-66
2023/10/15 07:46:13;;;;;;;;;;;;;;;;;;4950626;28;19953;-66
2023/10/15 07:48:39;;;;;;;;;;;;;;;;;;4946312;28;20240;-67
2023/10/15 07:51:05;;;;;;;;;;;;;;;;;;4911772;28;20009;-67
2023/10/15 07:56:48;;;;;;;;;;;;;;;;;;4949898;28;19964;-66
2023/10/15 07:59:14;;;;;;;;;;;;;;;;;;4946517;28;20005;-67
2023/10/15 08:01:42;;;;;;;;;;;;;;;;;;4946705;28;19918;-66
2023/10/15 08:04:09;;;;;;;;;;;;;;;;;;4908311;28;20522;-66
2023/10/15 08:06:35;;;;;;;;;;;;;;;;;;4944264;28;19922;-65
2023/10/15 08:09:00;;;;;;;;;;;;;;;;;;5008037;28;20684;-65
2023/10/15 08:11:25;;;;;;;;;;;;;;;;;;4944490;28;19922;-65
2023/10/15 08:13:51;;;;;;;;;;;;;;;;;;5008333;28;19919;-65
2023/10/15 08:16:16;;;;;;;;;;;;;;;;;;4949705;28;20453;-66
2023/10/15 08:18:42;;;;;;;;;;;;;;;;;;4944858;28;19926;-66
2023/10/15 08:21:11;;;;;;;;;;;;;;;;;;4946257;28;19926;-67
2023/10/15 08:23:38;;;;;;;;;;;;;;;;;;5008473;28;19922;-67
2023/10/15 08:26:05;;;;;;;;;;;;;;;;;;4929182;28;20082;-68
2023/10/15 08:28:31;;;;;;;;;;;;;;;;;;4950690;28;20289;-65
2023/10/15 08:30:58;;;;;;;;;;;;;;;;;;4929845;28;19927;-66
2023/10/15 08:33:24;;;;;;;;;;;;;;;;;;5008139;28;19918;-67
2023/10/15 08:35:49;;;;;;;;;;;;;;;;;;4947126;28;20533;-65
2023/10/15 08:38:17;;;;;;;;;;;;;;;;;;4962446;28;19967;-67
2023/10/15 08:40:44;;;;;;;;;;;;;;;;;;4956409;28;19946;-65
2023/10/15 08:43:09;;;;;;;;;;;;;;;;;;4962387;28;19922;-67
2023/10/15 08:45:34;;;;;;;;;;;;;;;;;;4947018;28;19922;-66
2023/10/15 08:48:00;;;;;;;;;;;;;;;;;;4946552;28;19918;-65
2023/10/15 08:50:29;;;;;;;;;;;;;;;;;;4961569;28;20327;-63
2023/10/15 08:52:57;;;;;;;;;;;;;;;;;;4946038;28;20029;-63
2023/10/15 08:55:22;;;;;;;;;;;;;;;;;;4941732;28;20392;-65
2023/10/15 08:57:54;;;;;;;;;;;;;;;;;;4945507;28;20025;-65
2023/10/15 09:00:25;;;;;;;;;;;;;;;;;;4958938;28;19918;-66
2023/10/15 09:02:50;;;;;;;;;;;;;;;;;;5008492;28;20295;-66
2023/10/15 09:05:16;;;;;;;;;;;;;;;;;;4939886;28;19948;-67
2023/10/15 09:07:41;;;;;;;;;;;;;;;;;;4962113;28;19918;-67
2023/10/15 09:10:13;;;;;;;;;;;;;;;;;;4960983;28;19925;-68
2023/10/15 09:12:39;;;;;;;;;;;;;;;;;;4924457;28;20562;-67
2023/10/15 09:15:05;;;;;;;;;;;;;;;;;;4958650;28;19933;-67
2023/10/15 09:17:30;;;;;;;;;;;;;;;;;;4996711;28;19980;-68
2023/10/15 09:19:55;;;;;;;;;;;;;;;;;;4928785;28;19959;-68
2023/10/15 09:22:23;;;;;;;;;;;;;;;;;;4961338;28;19941;-65
2023/10/15 09:24:51;;;;;;;;;;;;;;;;;;4947399;28;20438;-68
2023/10/15 09:27:16;;;;;;;;;;;;;;;;;;5004596;28;20061;-67
2023/10/15 09:29:45;;;;;;;;;;;;;;;;;;5004278;28;19922;-66
2023/10/15 09:32:13;;;;;;;;;;;;;;;;;;4939362;28;21951;-66
2023/10/15 09:34:42;;;;;;;;;;;;;;;;;;4941497;28;20028;-67
2023/10/15 09:37:09;;;;;;;;;;;;;;;;;;4948127;28;19926;-67
2023/10/15 09:39:35;;;;;;;;;;;;;;;;;;4956643;28;19922;-67
2023/10/15 09:42:03;;;;;;;;;;;;;;;;;;5008186;28;19960;-68
2023/10/15 09:44:35;;;;;;;;;;;;;;;;;;5006265;28;19940;-68
2023/10/15 09:47:08;;;;;;;;;;;;;;;;;;4937859;28;20059;-68
2023/10/15 09:49:35;;;;;;;;;;;;;;;;;;4949082;28;19918;-68
2023/10/15 09:52:05;;;;;;;;;;;;;;;;;;4930308;28;19918;-70
2023/10/15 09:54:34;;;;;;;;;;;;;;;;;;4955895;28;20746;-69
2023/10/15 09:56:59;;;;;;;;;;;;;;;;;;4954121;28;19926;-70
2023/10/15 09:59:24;;;;;;;;;;;;;;;;;;4939154;28;19928;-71
2023/10/15 10:01:50;;;;;;;;;;;;;;;;;;5007931;28;19957;-70
2023/10/15 10:04:16;;;;;;;;;;;;;;;;;;4963507;28;19918;-71
2023/10/15 10:06:45;;;;;;;;;;;;;;;;;;4960085;28;19929;-71
2023/10/15 10:09:11;;;;;;;;;;;;;;;;;;4949489;28;19922;-70
2023/10/15 10:11:36;;;;;;;;;;;;;;;;;;5009513;28;19996;-70
2023/10/15 10:14:04;;;;;;;;;;;;;;;;;;4963120;28;19961;-68
2023/10/15 10:16:32;;;;;;;;;;;;;;;;;;4947571;28;19918;-68
2023/10/15 10:18:57;;;;;;;;;;;;;;;;;;5008904;28;19996;-67
2023/10/15 10:21:22;;;;;;;;;;;;;;;;;;5011374;28;19926;-67
2023/10/15 10:23:50;;;;;;;;;;;;;;;;;;4925742;28;19960;-67
2023/10/15 10:26:19;;;;;;;;;;;;;;;;;;4945028;28;20343;-67
2023/10/15 10:28:44;;;;;;;;;;;;;;;;;;4962907;28;19922;-67
2023/10/15 10:31:11;;;;;;;;;;;;;;;;;;4948629;28;19919;-67
2023/10/15 10:33:36;;;;;;;;;;;;;;;;;;4913357;28;20026;-66
2023/10/15 10:36:02;;;;;;;;;;;;;;;;;;4959596;28;20562;-65
2023/10/15 10:38:28;;;;;;;;;;;;;;;;;;4912755;28;19931;-65
2023/10/15 10:40:54;;;;;;;;;;;;;;;;;;4961700;28;19925;-65
2023/10/15 10:43:20;;;;;;;;;;;;;;;;;;4959246;28;19978;-63
2023/10/15 10:45:45;;;;;;;;;;;;;;;;;;4961930;28;20008;-64
2023/10/15 10:48:10;;;;;;;;;;;;;;;;;;4940093;28;19950;-64
2023/10/15 10:50:36;;;;;;;;;;;;;;;;;;4939281;28;19964;-63
2023/10/15 10:53:01;;;;;;;;;;;;;;;;;;4948174;28;19929;-64
2023/10/15 10:55:26;;;;;;;;;;;;;;;;;;4961308;28;19935;-64
2023/10/15 10:57:52;;;;;;;;;;;;;;;;;;5010688;28;19926;-64
2023/10/15 11:00:17;;;;;;;;;;;;;;;;;;4950385;28;19925;-64
2023/10/15 11:02:43;;;;;;;;;;;;;;;;;;4958639;28;21058;-63
2023/10/15 11:05:11;;;;;;;;;;;;;;;;;;4945399;28;19929;-64
2023/10/15 11:07:36;;;;;;;;;;;;;;;;;;4933688;28;19929;-64
2023/10/15 11:10:02;;;;;;;;;;;;;;;;;;4949043;28;19919;-65
2023/10/15 11:12:27;;;;;;;;;;;;;;;;;;4947293;28;19922;-64
2023/10/15 11:14:53;;;;;;;;;;;;;;;;;;4950047;28;21557;-64
2023/10/15 11:17:19;;;;;;;;;;;;;;;;;;4941910;28;19944;-64
2023/10/15 11:19:46;;;;;;;;;;;;;;;;;;4947244;28;19930;-64
2023/10/15 11:22:14;;;;;;;;;;;;;;;;;;4947392;28;19926;-65
2023/10/15 11:24:39;;;;;;;;;;;;;;;;;;4942440;28;21002;-65
2023/10/15 11:27:07;;;;;;;;;;;;;;;;;;5008854;28;19926;-64
2023/10/15 11:29:33;;;;;;;;;;;;;;;;;;4924813;28;21136;-64
2023/10/15 11:31:58;;;;;;;;;;;;;;;;;;5007305;28;20307;-63
2023/10/15 11:34:27;;;;;;;;;;;;;;;;;;4950005;28;19922;-63
2023/10/15 11:36:55;;;;;;;;;;;;;;;;;;5006978;28;20498;-64
2023/10/15 11:39:37;;;;;;;;;;;;;;;;;;4947186;28;19919;-63
2023/10/15 11:42:03;;;;;;;;;;;;;;;;;;5008336;28;20323;-63
2023/10/15 11:44:31;;;;;;;;;;;;;;;;;;4962256;28;19918;-64
2023/10/15 11:46:57;;;;;;;;;;;;;;;;;;4948468;28;19987;-64
2023/10/15 11:49:22;;;;;;;;;;;;;;;;;;4958190;28;20571;-65
2023/10/15 11:51:48;;;;;;;;;;;;;;;;;;4961506;28;19942;-64
2023/10/15 11:54:15;;;;;;;;;;;;;;;;;;4948003;28;20010;-64
2023/10/15 11:56:41;;;;;;;;;;;;;;;;;;4931574;28;19922;-65
2023/10/15 11:59:07;;;;;;;;;;;;;;;;;;4947472;28;19922;-64
2023/10/15 12:01:35;;;;;;;;;;;;;;;;;;4936940;28;19922;-65
2023/10/15 12:04:00;;;;;;;;;;;;;;;;;;4959383;28;19923;-65
2023/10/15 12:06:26;;;;;;;;;;;;;;;;;;4930904;28;19928;-65
2023/10/15 12:08:52;;;;;;;;;;;;;;;;;;4961077;28;20016;-65
2023/10/15 12:11:18;;;;;;;;;;;;;;;;;;5009679;28;19914;-65
2023/10/15 12:13:47;;;;;;;;;;;;;;;;;;4948535;28;20297;-65
2023/10/15 12:16:13;;;;;;;;;;;;;;;;;;4944669;28;19918;-64
2023/10/15 12:18:38;;;;;;;;;;;;;;;;;;4911222;28;19926;-64
2023/10/15 12:21:03;;;;;;;;;;;;;;;;;;4918755;28;19930;-64
2023/10/15 12:23:28;;;;;;;;;;;;;;;;;;4960439;28;20373;-65
2023/10/15 12:25:54;;;;;;;;;;;;;;;;;;4958241;28;19918;-64
2023/10/15 12:28:19;;;;;;;;;;;;;;;;;;4960657;28;19969;-64
2023/10/15 12:30:47;;;;;;;;;;;;;;;;;;4949884;28;20316;-64
2023/10/15 12:33:15;;;;;;;;;;;;;;;;;;4947800;28;19999;-65
2023/10/15 12:35:41;;;;;;;;;;;;;;;;;;4961412;28;20338;-66
2023/10/15 12:38:06;;;;;;;;;;;;;;;;;;5005004;28;20666;-64
2023/10/15 12:40:32;;;;;;;;;;;;;;;;;;4929660;28;20165;-66
2023/10/15 12:42:57;;;;;;;;;;;;;;;;;;4933667;28;20392;-64
2023/10/15 12:45:22;;;;;;;;;;;;;;;;;;4946783;28;19952;-66
2023/10/15 12:47:48;;;;;;;;;;;;;;;;;;4941303;28;20301;-63
2023/10/15 12:50:14;;;;;;;;;;;;;;;;;;5005738;28;19918;-65
2023/10/15 12:52:44;;;;;;;;;;;;;;;;;;4960552;28;20042;-64
2023/10/15 12:55:15;;;;;;;;;;;;;;;;;;5008604;28;20570;-65
2023/10/15 12:57:41;;;;;;;;;;;;;;;;;;4944730;28;20051;-64
2023/10/15 13:00:16;;;;;;;;;;;;;;;;;;4947595;28;20017;-65
2023/10/15 13:02:45;;;;;;;;;;;;;;;;;;4941596;28;19923;-63
2023/10/15 13:05:13;;;;;;;;;;;;;;;;;;4946862;28;20293;-63
2023/10/15 13:07:43;;;;;;;;;;;;;;;;;;4946404;28;19922;-64
2023/10/15 13:10:09;;;;;;;;;;;;;;;;;;4938884;28;19925;-64
2023/10/15 13:12:37;;;;;;;;;;;;;;;;;;4946038;28;19922;-64
2023/10/15 13:15:07;;;;;;;;;;;;;;;;;;4959919;28;19968;-64
2023/10/15 13:17:35;;;;;;;;;;;;;;;;;;4926791;28;19961;-65
2023/10/15 13:20:05;;;;;;;;;;;;;;;;;;4947226;28;19954;-66
2023/10/15 13:22:31;;;;;;;;;;;;;;;;;;4933705;28;19926;-64
2023/10/15 13:24:56;;;;;;;;;;;;;;;;;;5005643;28;20525;-65
2023/10/15 13:27:21;;;;;;;;;;;;;;;;;;4956828;28;20005;-64
2023/10/15 13:29:46;;;;;;;;;;;;;;;;;;5006299;28;19918;-64
2023/10/15 13:32:14;;;;;;;;;;;;;;;;;;4939379;28;19983;-66
2023/10/15 13:34:40;;;;;;;;;;;;;;;;;;5007777;28;19964;-65
2023/10/15 13:37:05;;;;;;;;;;;;;;;;;;4958351;28;20000;-64
2023/10/15 13:39:32;;;;;;;;;;;;;;;;;;4962182;28;20443;-64
2023/10/15 13:42:03;;;;;;;;;;;;;;;;;;4950084;28;19922;-65
2023/10/15 13:44:29;;;;;;;;;;;;;;;;;;4923265;28;20413;-66
2023/10/15 13:46:57;;;;;;;;;;;;;;;;;;4950500;28;19965;-64
2023/10/15 13:49:25;;;;;;;;;;;;;;;;;;4948959;28;19921;-63
2023/10/15 13:51:53;;;;;;;;;;;;;;;;;;5009611;28;19918;-64
2023/10/15 13:54:21;;;;;;;;;;;;;;;;;;4945375;28;19922;-65
2023/10/15 13:56:47;;;;;;;;;;;;;;;;;;4948243;28;20002;-64
2023/10/15 13:59:20;;;;;;;;;;;;;;;;;;4947099;28;20358;-64
2023/10/15 14:01:48;;;;;;;;;;;;;;;;;;4955363;28;20679;-63
2023/10/15 14:04:14;;;;;;;;;;;;;;;;;;4951238;28;20266;-63
2023/10/15 14:06:39;;;;;;;;;;;;;;;;;;4947043;28;19976;-63
2023/10/15 14:09:14;;;;;;;;;;;;;;;;;;4962156;28;19918;-63
2023/10/15 14:11:42;;;;;;;;;;;;;;;;;;4948292;28;19929;-62
2023/10/15 14:14:13;;;;;;;;;;;;;;;;;;5006284;28;19922;-63
2023/10/15 14:16:39;;;;;;;;;;;;;;;;;;4947153;28;19957;-63
2023/10/15 14:19:09;;;;;;;;;;;;;;;;;;4949566;28;20100;-62
2023/10/15 14:21:35;;;;;;;;;;;;;;;;;;4941307;28;20021;-63
2023/10/15 14:24:00;;;;;;;;;;;;;;;;;;4962158;28;19918;-63
2023/10/15 14:26:26;;;;;;;;;;;;;;;;;;4946007;28;20037;-62
2023/10/15 14:28:53;;;;;;;;;;;;;;;;;;4948643;28;19999;-63
2023/10/15 14:31:19;;;;;;;;;;;;;;;;;;4942828;28;19918;-62
2023/10/15 14:33:44;;;;;;;;;;;;;;;;;;4945606;28;20270;-63
2023/10/15 14:36:09;;;;;;;;;;;;;;;;;;4950296;28;19922;-62
2023/10/15 14:38:35;;;;;;;;;;;;;;;;;;4965065;28;19922;-65
2023/10/15 14:41:00;;;;;;;;;;;;;;;;;;4962186;28;19933;-62
2023/10/15 14:43:25;;;;;;;;;;;;;;;;;;4962655;28;19948;-64
2023/10/15 14:45:53;;;;;;;;;;;;;;;;;;4941083;28;20302;-62
2023/10/15 14:48:18;;;;;;;;;;;;;;;;;;4964692;28;19919;-63
2023/10/15 14:50:49;;;;;;;;;;;;;;;;;;4950300;28;19971;-63
2023/10/15 14:53:14;;;;;;;;;;;;;;;;;;4948708;28;19933;-63
2023/10/15 14:55:45;;;;;;;;;;;;;;;;;;4947162;28;20459;-63
2023/10/15 14:58:12;;;;;;;;;;;;;;;;;;4963573;28;20006;-63
2023/10/15 15:00:39;;;;;;;;;;;;;;;;;;4942048;28;19922;-63
2023/10/15 15:03:08;;;;;;;;;;;;;;;;;;4933399;28;19928;-63
2023/10/15 15:05:35;;;;;;;;;;;;;;;;;;4942372;28;19922;-63
2023/10/15 15:08:04;;;;;;;;;;;;;;;;;;4946423;28;19918;-64
2023/10/15 15:10:30;;;;;;;;;;;;;;;;;;4927160;28;20035;-63
2023/10/15 15:12:55;;;;;;;;;;;;;;;;;;4950602;28;22061;-64
2023/10/15 15:15:20;;;;;;;;;;;;;;;;;;4939246;28;19919;-63
2023/10/15 15:17:45;;;;;;;;;;;;;;;;;;4950315;28;20039;-64
2023/10/15 15:20:16;;;;;;;;;;;;;;;;;;4945956;28;19922;-63
2023/10/15 15:22:44;;;;;;;;;;;;;;;;;;4946472;28;19926;-62
2023/10/15 15:25:10;;;;;;;;;;;;;;;;;;4943248;28;20385;-63
2023/10/15 15:27:41;;;;;;;;;;;;;;;;;;5003473;28;19922;-62
2023/10/15 15:30:08;;;;;;;;;;;;;;;;;;4943341;28;19918;-63
2023/10/15 15:32:37;;;;;;;;;;;;;;;;;;4961711;28;19925;-63
2023/10/15 15:35:02;;;;;;;;;;;;;;;;;;4948357;28;19923;-63
2023/10/15 15:37:27;;;;;;;;;;;;;;;;;;4932969;28;19926;-63
2023/10/15 15:39:52;;;;;;;;;;;;;;;;;;4927417;28;20337;-63
2023/10/15 15:42:17;;;;;;;;;;;;;;;;;;4961475;28;20347;-63
2023/10/15 15:44:45;;;;;;;;;;;;;;;;;;4957046;28;19942;-63
2023/10/15 15:47:16;;;;;;;;;;;;;;;;;;4942015;28;20057;-63
2023/10/15 15:49:43;;;;;;;;;;;;;;;;;;4946523;28;20257;-62
2023/10/15 15:52:09;;;;;;;;;;;;;;;;;;4949183;28;19929;-62
2023/10/15 15:54:38;;;;;;;;;;;;;;;;;;4948878;28;20042;-63
2023/10/15 15:57:03;;;;;;;;;;;;;;;;;;5007519;28;20416;-63
2023/10/15 15:59:29;;;;;;;;;;;;;;;;;;4949422;28;20288;-62
2023/10/15 16:01:57;;;;;;;;;;;;;;;;;;4948285;28;19923;-64
2023/10/15 16:04:25;;;;;;;;;;;;;;;;;;4946606;28;19918;-62
2023/10/15 16:06:50;;;;;;;;;;;;;;;;;;4963265;28;19922;-63
2023/10/15 16:09:20;;;;;;;;;;;;;;;;;;4963159;28;20356;-63
2023/10/15 16:11:45;;;;;;;;;;;;;;;;;;4962600;28;19922;-63
2023/10/15 16:14:14;;;;;;;;;;;;;;;;;;4909471;28;21423;-63
2023/10/15 16:16:42;;;;;;;;;;;;;;;;;;4949793;28;20467;-64
2023/10/15 16:19:12;;;;;;;;;;;;;;;;;;4948232;28;19922;-63
2023/10/15 16:21:37;;;;;;;;;;;;;;;;;;4920228;28;20378;-63
2023/10/15 16:24:07;;;;;;;;;;;;;;;;;;4921735;28;19923;-64
2023/10/15 16:26:35;;;;;;;;;;;;;;;;;;4909017;28;19926;-63
2023/10/15 16:29:03;;;;;;;;;;;;;;;;;;4924881;28;19934;-64
2023/10/15 16:31:29;;;;;;;;;;;;;;;;;;4910295;28;19918;-62
2023/10/15 16:33:54;;;;;;;;;;;;;;;;;;4906609;28;19957;-64
2023/10/15 16:36:19;;;;;;;;;;;;;;;;;;4925202;28;19923;-62
2023/10/15 16:38:45;;;;;;;;;;;;;;;;;;4923039;28;19929;-64
2023/10/15 16:41:13;;;;;;;;;;;;;;;;;;4907049;28;20690;-63
2023/10/15 16:43:41;;;;;;;;;;;;;;;;;;4922039;28;19922;-63
2023/10/15 16:46:06;;;;;;;;;;;;;;;;;;4905266;28;19926;-63
2023/10/15 16:48:34;;;;;;;;;;;;;;;;;;4906458;28;20010;-64
2023/10/15 16:50:59;;;;;;;;;;;;;;;;;;4923581;28;19923;-64
2023/10/15 16:53:25;;;;;;;;;;;;;;;;;;4921294;28;19930;-64
2023/10/15 16:55:53;;;;;;;;;;;;;;;;;;4898009;28;20104;-64
2023/10/15 16:58:22;;;;;;;;;;;;;;;;;;4920383;28;19934;-64